createdAt,value
2018-10-16T00:00:59.840Z,8.70
2018-10-16T00:05:40.126Z,8.70
2018-10-16T00:10:26.224Z,8.60
2018-10-16T00:15:07.479Z,8.60
2018-10-16T00:19:47.404Z,8.70
2018-10-16T00:24:28.044Z,8.60
2018-10-16T00:29:07.981Z,8.50
2018-10-16T00:33:48.574Z,8.40
2018-10-16T00:38:28.649Z,8.30
2018-10-16T00:43:08.592Z,8.30
2018-10-16T00:47:48.564Z,8.10
2018-10-16T00:52:29.395Z,8.10
2018-10-16T00:57:09.233Z,8.10
2018-10-16T01:01:49.971Z,8.00
2018-10-16T01:06:32.129Z,8.00
2018-10-16T01:11:12.723Z,7.90
2018-10-16T01:15:53.132Z,7.90
2018-10-16T01:20:33.856Z,7.90
2018-10-16T01:25:14.164Z,8.00
2018-10-16T01:29:54.117Z,8.00
2018-10-16T01:34:34.756Z,8.00
2018-10-16T01:39:15.320Z,7.80
2018-10-16T01:43:56.379Z,7.70
2018-10-16T01:48:36.730Z,7.70
2018-10-16T01:53:17.552Z,7.70
2018-10-16T01:57:58.121Z,7.60
2018-10-16T02:02:38.286Z,7.60
2018-10-16T02:07:18.008Z,7.70
2018-10-16T02:11:57.861Z,7.60
2018-10-16T02:16:37.676Z,7.60
2018-10-16T02:21:17.640Z,7.50
2018-10-16T02:25:59.224Z,7.40
2018-10-16T02:30:39.774Z,7.40
2018-10-16T02:35:19.671Z,7.30
2018-10-16T02:39:59.820Z,7.30
2018-10-16T02:44:40.597Z,7.30
2018-10-16T02:49:22.009Z,7.30
2018-10-16T02:54:02.692Z,7.20
2018-10-16T02:58:44.088Z,7.10
2018-10-16T03:03:24.460Z,7.00
2018-10-16T03:08:05.077Z,7.00
2018-10-16T03:12:45.097Z,7.00
2018-10-16T03:17:25.584Z,6.90
2018-10-16T03:22:05.580Z,6.90
2018-10-16T03:26:46.104Z,6.80
2018-10-16T03:31:25.979Z,6.80
2018-10-16T03:36:07.141Z,6.70
2018-10-16T03:40:48.231Z,6.70
2018-10-16T03:45:28.836Z,6.70
2018-10-16T03:50:09.554Z,6.60
2018-10-16T03:54:49.260Z,6.60
2018-10-16T03:59:29.768Z,6.60
2018-10-16T04:04:09.532Z,6.50
2018-10-16T04:08:50.028Z,6.50
2018-10-16T04:13:32.068Z,6.50
2018-10-16T04:18:11.744Z,6.50
2018-10-16T04:22:51.555Z,6.50
2018-10-16T04:27:31.875Z,6.40
2018-10-16T04:32:11.804Z,6.40
2018-10-16T04:36:51.539Z,6.30
2018-10-16T04:41:32.752Z,6.30
2018-10-16T04:46:14.286Z,6.10
2018-10-16T04:50:54.181Z,6.10
2018-10-16T04:55:34.029Z,6.00
2018-10-16T05:00:13.833Z,6.00
2018-10-16T05:04:53.701Z,6.00
2018-10-16T05:09:33.556Z,6.00
2018-10-16T05:14:13.305Z,6.00
2018-10-16T05:18:53.257Z,6.00
2018-10-16T05:23:33.772Z,6.00
2018-10-16T05:28:13.635Z,6.00
2018-10-16T05:32:53.748Z,5.90
2018-10-16T05:37:34.311Z,5.90
2018-10-16T05:42:14.018Z,5.90
2018-10-16T05:46:54.679Z,6.00
2018-10-16T05:51:34.792Z,6.00
2018-10-16T05:56:14.716Z,5.90
2018-10-16T06:00:54.769Z,5.90
2018-10-16T06:05:34.746Z,5.90
2018-10-16T06:10:14.728Z,5.90
2018-10-16T06:14:55.926Z,5.90
2018-10-16T06:19:36.266Z,5.90
2018-10-16T06:24:16.167Z,6.00
2018-10-16T06:28:56.874Z,6.10
2018-10-16T06:33:37.952Z,6.40
2018-10-16T06:38:19.957Z,6.90
2018-10-16T06:43:01.166Z,7.80
2018-10-16T06:47:41.040Z,9.20
2018-10-16T06:52:21.914Z,10.50
2018-10-16T06:57:02.126Z,11.60
2018-10-16T07:01:42.212Z,12.80
2018-10-16T07:06:23.129Z,13.90
2018-10-16T07:11:02.805Z,14.90
2018-10-16T07:15:43.989Z,15.80
2018-10-16T07:20:23.968Z,16.90
2018-10-16T07:25:04.017Z,17.50
2018-10-16T07:29:43.984Z,18.00
2018-10-16T07:34:24.056Z,18.80
2018-10-16T07:39:05.327Z,19.50
2018-10-16T07:43:45.712Z,19.80
2018-10-16T07:48:25.592Z,20.30
2018-10-16T07:53:06.263Z,21.10
2018-10-16T07:57:46.583Z,21.80
2018-10-16T08:02:26.459Z,22.50
2018-10-16T08:07:07.583Z,23.20
2018-10-16T08:11:50.302Z,24.10
2018-10-16T08:16:31.936Z,24.30
2018-10-16T08:21:13.538Z,22.20
2018-10-16T08:25:54.758Z,21.20
2018-10-16T08:30:34.628Z,20.10
2018-10-16T08:35:15.045Z,18.80
2018-10-16T08:39:56.988Z,19.80
2018-10-16T08:45:20.020Z,22.30
2018-10-16T08:50:11.089Z,24.00
2018-10-16T08:54:50.960Z,25.20
2018-10-16T08:59:31.154Z,25.70
2018-10-16T09:04:11.799Z,26.50
2018-10-16T09:08:52.473Z,27.50
2018-10-16T09:13:33.235Z,27.90
2018-10-16T09:18:13.720Z,27.30
2018-10-16T09:22:54.880Z,25.60
2018-10-16T09:27:34.797Z,24.10
2018-10-16T09:32:14.828Z,24.80
2018-10-16T09:36:56.124Z,26.10
2018-10-16T09:41:37.151Z,27.60
2018-10-16T09:46:18.229Z,28.40
2018-10-16T09:50:58.661Z,29.10
2018-10-16T09:55:38.735Z,29.10
2018-10-16T10:00:23.990Z,29.40
2018-10-16T10:05:04.433Z,30.20
2018-10-16T10:09:44.285Z,31.50
2018-10-16T10:14:24.884Z,32.10
2018-10-16T10:19:05.924Z,32.40
2018-10-16T10:23:46.872Z,32.00
2018-10-16T10:28:27.852Z,30.10
2018-10-16T10:33:08.230Z,30.50
2018-10-16T10:37:48.348Z,31.60
2018-10-16T10:42:28.679Z,32.50
2018-10-16T10:47:08.648Z,33.60
2018-10-16T10:51:50.037Z,34.30
2018-10-16T10:56:30.076Z,34.40
2018-10-16T11:01:10.068Z,32.60
2018-10-16T11:05:49.844Z,31.30
2018-10-16T11:10:30.605Z,29.20
2018-10-16T11:15:11.502Z,27.40
2018-10-16T11:19:51.321Z,26.60
2018-10-16T11:24:31.268Z,28.20
2018-10-16T11:29:11.204Z,30.60
2018-10-16T11:33:52.102Z,32.20
2018-10-16T11:38:32.913Z,32.70
2018-10-16T11:43:13.028Z,32.50
2018-10-16T11:47:54.409Z,31.70
2018-10-16T11:52:34.368Z,30.60
2018-10-16T11:57:14.524Z,28.80
2018-10-16T12:01:55.307Z,28.30
2018-10-16T12:06:36.960Z,28.10
2018-10-16T12:11:16.892Z,27.10
2018-10-16T12:15:57.368Z,26.30
2018-10-16T12:20:41.429Z,25.60
2018-10-16T12:25:21.441Z,25.10
2018-10-16T12:30:01.096Z,24.60
2018-10-16T12:34:41.692Z,24.40
2018-10-16T12:39:22.356Z,24.40
2018-10-16T12:44:03.932Z,24.20
2018-10-16T12:48:43.920Z,24.20
2018-10-16T12:53:23.976Z,24.10
2018-10-16T12:58:03.716Z,24.10
2018-10-16T13:02:44.188Z,24.00
2018-10-16T13:07:35.191Z,23.90
2018-10-16T13:12:17.236Z,23.80
2018-10-16T13:16:57.845Z,23.80
2018-10-16T13:21:38.456Z,23.70
2018-10-16T13:26:19.054Z,23.60
2018-10-16T13:30:59.155Z,23.50
2018-10-16T13:35:39.132Z,23.50
2018-10-16T13:40:19.704Z,23.50
2018-10-16T13:45:01.161Z,23.50
2018-10-16T13:49:41.218Z,23.40
2018-10-16T13:54:22.381Z,23.40
2018-10-16T13:59:02.185Z,23.30
2018-10-16T14:03:43.012Z,23.30
2018-10-16T14:08:23.424Z,23.40
2018-10-16T14:13:03.320Z,23.50
2018-10-16T14:17:43.960Z,23.60
2018-10-16T14:22:25.559Z,23.70
2018-10-16T14:27:06.600Z,23.80
2018-10-16T14:31:46.320Z,23.70
2018-10-16T14:36:25.955Z,23.60
2018-10-16T14:41:05.868Z,23.60
2018-10-16T14:45:45.860Z,23.50
2018-10-16T14:50:27.932Z,23.40
2018-10-16T14:55:08.008Z,23.20
2018-10-16T14:59:48.141Z,23.10
2018-10-16T15:04:28.397Z,23.00
2018-10-16T15:09:10.084Z,22.90
2018-10-16T15:13:50.958Z,22.70
2018-10-16T15:18:32.572Z,22.60
2018-10-16T15:23:17.894Z,22.40
2018-10-16T15:27:59.257Z,22.30
2018-10-16T15:32:40.329Z,22.00
2018-10-16T15:37:21.078Z,21.90
2018-10-16T15:42:02.364Z,21.70
2018-10-16T15:46:42.188Z,21.40
2018-10-16T15:51:24.193Z,21.20
2018-10-16T15:56:06.878Z,21.00
2018-10-16T16:00:49.583Z,20.80
2018-10-16T16:05:29.759Z,20.70
2018-10-16T16:10:11.800Z,20.60
2018-10-16T16:14:54.298Z,20.30
2018-10-16T16:19:34.117Z,20.10
2018-10-16T16:24:14.181Z,19.90
2018-10-16T16:28:55.525Z,19.60
2018-10-16T16:33:35.333Z,19.40
2018-10-16T16:38:15.993Z,19.10
2018-10-16T16:42:56.734Z,18.70
2018-10-16T16:47:36.938Z,18.40
2018-10-16T16:52:17.121Z,18.10
2018-10-16T16:56:57.600Z,17.90
2018-10-16T17:01:37.480Z,17.60
2018-10-16T17:06:18.080Z,17.40
2018-10-16T17:11:00.584Z,17.20
2018-10-16T17:15:41.636Z,16.90
2018-10-16T17:20:25.133Z,16.70
2018-10-16T17:25:06.737Z,16.50
2018-10-16T17:29:47.045Z,16.30
2018-10-16T17:34:26.908Z,16.10
2018-10-16T17:39:11.792Z,16.00
2018-10-16T17:43:51.997Z,15.80
2018-10-16T17:48:32.001Z,15.60
2018-10-16T17:53:12.216Z,15.50
2018-10-16T17:57:56.570Z,15.30
2018-10-16T18:02:36.616Z,15.10
2018-10-16T18:07:18.737Z,14.90
2018-10-16T18:12:02.504Z,14.70
2018-10-16T18:16:44.617Z,14.50
2018-10-16T18:21:25.100Z,14.40
2018-10-16T18:26:05.560Z,14.30
2018-10-16T18:30:45.772Z,14.20
2018-10-16T18:35:27.977Z,14.10
2018-10-16T18:40:09.520Z,14.00
2018-10-16T18:44:49.923Z,13.90
2018-10-16T18:49:33.395Z,13.80
2018-10-16T18:54:14.337Z,13.70
2018-10-16T18:58:55.584Z,13.60
2018-10-16T19:03:36.893Z,13.50
2018-10-16T19:08:17.524Z,13.40
2018-10-16T19:13:01.684Z,13.20
2018-10-16T19:17:42.449Z,13.10
2018-10-16T19:22:22.167Z,13.00
2018-10-16T19:27:04.794Z,12.80
2018-10-16T19:31:44.936Z,12.70
2018-10-16T19:36:25.319Z,12.60
2018-10-16T19:41:06.522Z,12.60
2018-10-16T19:45:46.989Z,12.60
2018-10-16T19:50:28.083Z,12.50
2018-10-16T19:55:10.030Z,12.50
2018-10-16T19:59:52.264Z,12.50
2018-10-16T20:04:35.174Z,12.40
2018-10-16T20:09:16.195Z,12.40
2018-10-16T20:13:58.288Z,12.40
2018-10-16T20:18:39.522Z,12.30
2018-10-16T20:23:19.518Z,12.30
2018-10-16T20:27:59.936Z,12.30
2018-10-16T20:32:39.946Z,12.30
2018-10-16T20:37:19.994Z,12.20
2018-10-16T20:42:04.388Z,12.10
2018-10-16T20:46:48.562Z,12.10
2018-10-16T20:51:29.838Z,11.90
2018-10-16T20:56:13.150Z,11.80
2018-10-16T21:00:53.748Z,11.70
2018-10-16T21:05:36.517Z,11.50
2018-10-16T21:10:18.612Z,11.40
2018-10-16T21:14:59.904Z,11.30
2018-10-16T21:19:40.815Z,11.30
2018-10-16T21:24:20.607Z,11.20
2018-10-16T21:29:00.694Z,11.10
2018-10-16T21:33:40.608Z,11.10
2018-10-16T21:38:20.583Z,11.00
2018-10-16T21:43:00.458Z,11.00
2018-10-16T21:47:40.121Z,11.00
2018-10-16T21:52:19.899Z,10.80
2018-10-16T21:56:59.947Z,10.70
2018-10-16T22:01:45.207Z,10.70
2018-10-16T22:06:26.181Z,10.60
2018-10-16T22:11:07.705Z,10.50
2018-10-16T22:15:47.870Z,10.50
2018-10-16T22:20:27.692Z,10.50
2018-10-16T22:25:07.659Z,10.50
2018-10-16T22:29:47.476Z,10.40
2018-10-16T22:34:27.326Z,10.30
2018-10-16T22:39:09.360Z,10.20
2018-10-16T22:43:49.144Z,10.20
2018-10-16T22:48:29.154Z,10.10
2018-10-16T22:53:08.934Z,10.10
2018-10-16T22:57:48.703Z,10.00
2018-10-16T23:02:28.542Z,10.00
2018-10-16T23:07:10.280Z,10.00
2018-10-16T23:11:50.202Z,10.00
2018-10-16T23:16:31.255Z,9.80
2018-10-16T23:21:11.088Z,9.70
2018-10-16T23:25:52.163Z,9.60
2018-10-16T23:30:31.923Z,9.50
2018-10-16T23:35:12.006Z,9.40
2018-10-16T23:39:52.164Z,9.30
2018-10-16T23:44:31.907Z,9.30
2018-10-16T23:49:11.829Z,9.20
2018-10-16T23:53:51.527Z,9.20
2018-10-16T23:58:32.311Z,9.10
